sensor_id;sensor_type;location;lat;lon;timestamp;P1;durP1;ratioP1;P2;durP2;ratioP2
50363;SDS011;36272;59.400;17.982;2022-11-15T00:03:30;2.70;;;1.60;;
50363;SDS011;36272;59.400;17.982;2022-11-15T00:08:31;2.45;;;1.90;;
50363;SDS011;36272;59.400;17.982;2022-11-15T00:13:33;2.60;;;2.40;;
50363;SDS011;36272;59.400;17.982;2022-11-15T00:18:35;3.25;;;2.47;;
50363;SDS011;36272;59.400;17.982;2022-11-15T00:23:37;3.55;;;2.50;;
50363;SDS011;36272;59.400;17.982;2022-11-15T00:28:38;3.22;;;2.17;;
50363;SDS011;36272;59.400;17.982;2022-11-15T00:33:42;2.13;;;1.92;;
50363;SDS011;36272;59.400;17.982;2022-11-15T00:38:46;2.10;;;1.73;;
50363;SDS011;36272;59.400;17.982;2022-11-15T00:43:47;3.08;;;2.00;;
50363;SDS011;36272;59.400;17.982;2022-11-15T00:48:49;2.33;;;1.88;;
50363;SDS011;36272;59.400;17.982;2022-11-15T00:53:50;3.67;;;2.88;;
50363;SDS011;36272;59.400;17.982;2022-11-15T00:58:52;3.53;;;2.75;;
50363;SDS011;36272;59.400;17.982;2022-11-15T01:03:54;3.08;;;2.63;;
50363;SDS011;36272;59.400;17.982;2022-11-15T01:08:56;4.97;;;2.75;;
50363;SDS011;36272;59.400;17.982;2022-11-15T01:13:57;2.75;;;1.92;;
50363;SDS011;36272;59.400;17.982;2022-11-15T01:18:59;3.60;;;1.30;;
50363;SDS011;36272;59.400;17.982;2022-11-15T01:24:01;3.83;;;1.73;;
50363;SDS011;36272;59.400;17.982;2022-11-15T01:29:03;1.70;;;1.40;;
50363;SDS011;36272;59.400;17.982;2022-11-15T01:34:04;0.95;;;0.80;;
50363;SDS011;36272;59.400;17.982;2022-11-15T01:39:06;2.50;;;1.38;;
50363;SDS011;36272;59.400;17.982;2022-11-15T01:49:35;2.05;;;1.63;;
50363;SDS011;36272;59.400;17.982;2022-11-15T01:59:44;3.30;;;2.65;;
50363;SDS011;36272;59.400;17.982;2022-11-15T02:04:46;6.28;;;3.55;;
50363;SDS011;36272;59.400;17.982;2022-11-15T02:09:49;5.53;;;3.85;;
50363;SDS011;36272;59.400;17.982;2022-11-15T02:14:52;5.85;;;3.67;;
50363;SDS011;36272;59.400;17.982;2022-11-15T02:35:43;5.45;;;3.72;;
50363;SDS011;36272;59.400;17.982;2022-11-15T02:51:50;3.75;;;3.00;;
50363;SDS011;36272;59.400;17.982;2022-11-15T02:56:54;4.60;;;2.70;;
50363;SDS011;36272;59.400;17.982;2022-11-15T03:07:14;5.05;;;3.78;;
50363;SDS011;36272;59.400;17.982;2022-11-15T03:12:30;5.45;;;3.63;;
50363;SDS011;36272;59.400;17.982;2022-11-15T03:17:51;5.80;;;3.08;;
50363;SDS011;36272;59.400;17.982;2022-11-15T03:22:55;5.47;;;3.65;;
50363;SDS011;36272;59.400;17.982;2022-11-15T03:28:02;4.72;;;3.35;;
50363;SDS011;36272;59.400;17.982;2022-11-15T03:33:07;4.90;;;3.35;;
50363;SDS011;36272;59.400;17.982;2022-11-15T03:48:54;8.13;;;4.50;;
50363;SDS011;36272;59.400;17.982;2022-11-15T03:54:04;7.78;;;5.10;;
50363;SDS011;36272;59.400;17.982;2022-11-15T03:59:06;9.13;;;4.97;;
50363;SDS011;36272;59.400;17.982;2022-11-15T04:04:08;10.90;;;5.38;;
50363;SDS011;36272;59.400;17.982;2022-11-15T04:09:09;13.18;;;5.90;;
50363;SDS011;36272;59.400;17.982;2022-11-15T04:14:11;9.18;;;5.20;;
50363;SDS011;36272;59.400;17.982;2022-11-15T04:19:12;8.50;;;4.88;;
50363;SDS011;36272;59.400;17.982;2022-11-15T04:24:33;5.97;;;4.28;;
50363;SDS011;36272;59.400;17.982;2022-11-15T04:29:34;4.65;;;3.60;;
50363;SDS011;36272;59.400;17.982;2022-11-15T04:34:36;4.45;;;3.45;;
50363;SDS011;36272;59.400;17.982;2022-11-15T04:39:39;6.13;;;4.10;;
50363;SDS011;36272;59.400;17.982;2022-11-15T04:44:41;5.65;;;4.35;;
50363;SDS011;36272;59.400;17.982;2022-11-15T04:49:43;5.95;;;4.15;;
50363;SDS011;36272;59.400;17.982;2022-11-15T04:54:47;5.10;;;3.65;;
50363;SDS011;36272;59.400;17.982;2022-11-15T04:59:49;7.82;;;4.20;;
50363;SDS011;36272;59.400;17.982;2022-11-15T05:04:51;8.35;;;4.20;;
50363;SDS011;36272;59.400;17.982;2022-11-15T05:09:52;8.50;;;4.18;;
50363;SDS011;36272;59.400;17.982;2022-11-15T05:14:54;8.20;;;4.30;;
50363;SDS011;36272;59.400;17.982;2022-11-15T05:19:55;6.63;;;3.88;;
50363;SDS011;36272;59.400;17.982;2022-11-15T05:24:57;7.97;;;4.13;;
50363;SDS011;36272;59.400;17.982;2022-11-15T05:29:58;9.20;;;4.28;;
50363;SDS011;36272;59.400;17.982;2022-11-15T05:35:00;10.88;;;4.70;;
50363;SDS011;36272;59.400;17.982;2022-11-15T05:40:02;5.53;;;3.58;;
50363;SDS011;36272;59.400;17.982;2022-11-15T05:45:04;8.32;;;3.88;;
50363;SDS011;36272;59.400;17.982;2022-11-15T05:50:10;13.57;;;4.00;;
50363;SDS011;36272;59.400;17.982;2022-11-15T05:55:15;11.55;;;3.80;;
50363;SDS011;36272;59.400;17.982;2022-11-15T06:00:17;8.02;;;3.30;;
50363;SDS011;36272;59.400;17.982;2022-11-15T06:05:18;10.73;;;3.10;;
50363;SDS011;36272;59.400;17.982;2022-11-15T06:10:20;6.20;;;2.53;;
50363;SDS011;36272;59.400;17.982;2022-11-15T06:15:22;8.23;;;2.20;;
50363;SDS011;36272;59.400;17.982;2022-11-15T06:20:25;7.88;;;2.20;;
50363;SDS011;36272;59.400;17.982;2022-11-15T06:25:38;6.13;;;2.08;;
50363;SDS011;36272;59.400;17.982;2022-11-15T06:30:43;6.93;;;1.88;;
50363;SDS011;36272;59.400;17.982;2022-11-15T06:35:44;5.43;;;1.58;;
50363;SDS011;36272;59.400;17.982;2022-11-15T06:40:46;6.15;;;1.70;;
50363;SDS011;36272;59.400;17.982;2022-11-15T06:46:07;5.00;;;1.70;;
50363;SDS011;36272;59.400;17.982;2022-11-15T06:51:09;7.55;;;1.98;;
50363;SDS011;36272;59.400;17.982;2022-11-15T06:56:10;4.15;;;1.83;;
50363;SDS011;36272;59.400;17.982;2022-11-15T07:06:53;6.82;;;1.63;;
50363;SDS011;36272;59.400;17.982;2022-11-15T07:11:55;6.57;;;1.40;;
50363;SDS011;36272;59.400;17.982;2022-11-15T07:16:57;4.13;;;1.50;;
50363;SDS011;36272;59.400;17.982;2022-11-15T07:21:58;5.82;;;1.52;;
50363;SDS011;36272;59.400;17.982;2022-11-15T07:27:00;4.93;;;1.48;;
50363;SDS011;36272;59.400;17.982;2022-11-15T07:32:01;5.10;;;1.50;;
50363;SDS011;36272;59.400;17.982;2022-11-15T07:37:03;7.45;;;1.30;;
50363;SDS011;36272;59.400;17.982;2022-11-15T07:42:05;3.83;;;1.35;;
50363;SDS011;36272;59.400;17.982;2022-11-15T07:47:32;6.95;;;1.50;;
50363;SDS011;36272;59.400;17.982;2022-11-15T07:52:34;6.22;;;1.65;;
50363;SDS011;36272;59.400;17.982;2022-11-15T07:57:36;5.45;;;1.90;;
50363;SDS011;36272;59.400;17.982;2022-11-15T08:02:37;4.78;;;1.70;;
50363;SDS011;36272;59.400;17.982;2022-11-15T08:07:39;4.57;;;1.50;;
50363;SDS011;36272;59.400;17.982;2022-11-15T08:12:41;5.97;;;1.67;;
50363;SDS011;36272;59.400;17.982;2022-11-15T08:17:43;3.45;;;1.70;;
50363;SDS011;36272;59.400;17.982;2022-11-15T08:22:44;7.22;;;1.92;;
50363;SDS011;36272;59.400;17.982;2022-11-15T08:27:46;4.47;;;1.40;;
50363;SDS011;36272;59.400;17.982;2022-11-15T08:32:48;4.47;;;1.38;;
50363;SDS011;36272;59.400;17.982;2022-11-15T08:37:51;3.40;;;1.33;;
50363;SDS011;36272;59.400;17.982;2022-11-15T08:42:54;3.40;;;1.33;;
50363;SDS011;36272;59.400;17.982;2022-11-15T08:47:55;3.67;;;1.13;;
50363;SDS011;36272;59.400;17.982;2022-11-15T08:52:57;4.15;;;1.10;;
50363;SDS011;36272;59.400;17.982;2022-11-15T08:57:59;3.05;;;1.20;;
50363;SDS011;36272;59.400;17.982;2022-11-15T09:03:03;3.70;;;1.05;;
50363;SDS011;36272;59.400;17.982;2022-11-15T09:08:05;2.03;;;0.97;;
50363;SDS011;36272;59.400;17.982;2022-11-15T09:13:07;3.97;;;1.17;;
50363;SDS011;36272;59.400;17.982;2022-11-15T09:18:09;3.80;;;1.00;;
50363;SDS011;36272;59.400;17.982;2022-11-15T09:23:10;2.97;;;1.10;;
50363;SDS011;36272;59.400;17.982;2022-11-15T09:28:12;2.97;;;0.77;;
50363;SDS011;36272;59.400;17.982;2022-11-15T09:33:14;4.78;;;0.82;;
50363;SDS011;36272;59.400;17.982;2022-11-15T09:38:15;3.03;;;0.70;;
50363;SDS011;36272;59.400;17.982;2022-11-15T09:48:46;2.80;;;0.98;;
50363;SDS011;36272;59.400;17.982;2022-11-15T09:54:00;4.88;;;1.17;;
50363;SDS011;36272;59.400;17.982;2022-11-15T09:59:36;4.70;;;0.93;;
50363;SDS011;36272;59.400;17.982;2022-11-15T10:04:59;6.25;;;1.08;;
50363;SDS011;36272;59.400;17.982;2022-11-15T10:10:12;3.05;;;0.82;;
50363;SDS011;36272;59.400;17.982;2022-11-15T10:15:15;4.93;;;0.90;;
50363;SDS011;36272;59.400;17.982;2022-11-15T10:20:24;3.25;;;1.05;;
50363;SDS011;36272;59.400;17.982;2022-11-15T10:25:31;4.75;;;1.00;;
50363;SDS011;36272;59.400;17.982;2022-11-15T10:30:36;5.97;;;1.02;;
50363;SDS011;36272;59.400;17.982;2022-11-15T10:35:42;4.75;;;1.10;;
50363;SDS011;36272;59.400;17.982;2022-11-15T10:40:43;4.75;;;1.13;;
50363;SDS011;36272;59.400;17.982;2022-11-15T10:45:46;3.60;;;1.08;;
50363;SDS011;36272;59.400;17.982;2022-11-15T10:50:48;3.00;;;1.42;;
50363;SDS011;36272;59.400;17.982;2022-11-15T10:56:02;7.45;;;1.33;;
50363;SDS011;36272;59.400;17.982;2022-11-15T11:06:52;1.92;;;1.30;;
50363;SDS011;36272;59.400;17.982;2022-11-15T11:11:59;6.65;;;1.63;;
50363;SDS011;36272;59.400;17.982;2022-11-15T11:27:59;3.53;;;1.50;;
50363;SDS011;36272;59.400;17.982;2022-11-15T11:39:38;4.82;;;1.80;;
50363;SDS011;36272;59.400;17.982;2022-11-15T12:00:22;7.33;;;1.97;;
50363;SDS011;36272;59.400;17.982;2022-11-15T12:11:03;4.32;;;1.25;;
50363;SDS011;36272;59.400;17.982;2022-11-15T12:26:42;4.70;;;1.75;;
50363;SDS011;36272;59.400;17.982;2022-11-15T12:31:51;3.58;;;1.50;;
50363;SDS011;36272;59.400;17.982;2022-11-15T12:37:01;3.42;;;1.30;;
50363;SDS011;36272;59.400;17.982;2022-11-15T12:47:15;2.90;;;1.50;;
50363;SDS011;36272;59.400;17.982;2022-11-15T12:52:27;5.28;;;1.70;;
50363;SDS011;36272;59.400;17.982;2022-11-15T12:57:34;1.83;;;1.27;;
50363;SDS011;36272;59.400;17.982;2022-11-15T13:02:40;4.22;;;1.65;;
50363;SDS011;36272;59.400;17.982;2022-11-15T13:12:50;3.70;;;1.80;;
50363;SDS011;36272;59.400;17.982;2022-11-15T13:17:55;2.08;;;1.20;;
50363;SDS011;36272;59.400;17.982;2022-11-15T13:33:20;4.88;;;1.60;;
50363;SDS011;36272;59.400;17.982;2022-11-15T13:38:32;3.72;;;1.63;;
50363;SDS011;36272;59.400;17.982;2022-11-15T13:43:38;4.93;;;1.77;;
50363;SDS011;36272;59.400;17.982;2022-11-15T13:48:40;5.57;;;1.70;;
50363;SDS011;36272;59.400;17.982;2022-11-15T13:53:44;4.22;;;1.52;;
50363;SDS011;36272;59.400;17.982;2022-11-15T13:58:51;4.68;;;1.70;;
50363;SDS011;36272;59.400;17.982;2022-11-15T14:03:58;4.53;;;1.50;;
50363;SDS011;36272;59.400;17.982;2022-11-15T14:19:11;5.10;;;1.67;;
50363;SDS011;36272;59.400;17.982;2022-11-15T14:24:24;4.75;;;1.73;;
50363;SDS011;36272;59.400;17.982;2022-11-15T14:29:37;3.80;;;1.35;;
50363;SDS011;36272;59.400;17.982;2022-11-15T14:34:43;5.20;;;1.52;;
50363;SDS011;36272;59.400;17.982;2022-11-15T14:39:45;4.07;;;1.20;;
50363;SDS011;36272;59.400;17.982;2022-11-15T14:44:47;7.82;;;1.30;;
50363;SDS011;36272;59.400;17.982;2022-11-15T14:49:51;4.72;;;1.70;;
50363;SDS011;36272;59.400;17.982;2022-11-15T14:54:54;5.22;;;1.10;;
50363;SDS011;36272;59.400;17.982;2022-11-15T14:59:56;6.45;;;1.30;;
50363;SDS011;36272;59.400;17.982;2022-11-15T15:04:58;5.90;;;1.63;;
50363;SDS011;36272;59.400;17.982;2022-11-15T15:10:03;3.75;;;1.52;;
50363;SDS011;36272;59.400;17.982;2022-11-15T15:15:05;7.30;;;1.52;;
50363;SDS011;36272;59.400;17.982;2022-11-15T15:20:15;3.55;;;1.33;;
50363;SDS011;36272;59.400;17.982;2022-11-15T15:25:33;6.15;;;1.20;;
50363;SDS011;36272;59.400;17.982;2022-11-15T15:30:36;4.53;;;1.52;;
50363;SDS011;36272;59.400;17.982;2022-11-15T15:35:37;4.13;;;1.30;;
50363;SDS011;36272;59.400;17.982;2022-11-15T15:40:41;4.03;;;1.25;;
50363;SDS011;36272;59.400;17.982;2022-11-15T15:45:43;3.25;;;1.30;;
50363;SDS011;36272;59.400;17.982;2022-11-15T15:50:48;1.92;;;1.30;;
50363;SDS011;36272;59.400;17.982;2022-11-15T15:55:50;3.90;;;1.20;;
50363;SDS011;36272;59.400;17.982;2022-11-15T16:00:52;4.07;;;1.40;;
50363;SDS011;36272;59.400;17.982;2022-11-15T16:05:53;3.55;;;1.25;;
50363;SDS011;36272;59.400;17.982;2022-11-15T16:10:58;2.00;;;1.00;;
50363;SDS011;36272;59.400;17.982;2022-11-15T16:16:00;4.72;;;1.65;;
50363;SDS011;36272;59.400;17.982;2022-11-15T16:21:09;3.97;;;1.40;;
50363;SDS011;36272;59.400;17.982;2022-11-15T16:26:14;2.15;;;1.17;;
50363;SDS011;36272;59.400;17.982;2022-11-15T16:31:22;4.97;;;1.55;;
50363;SDS011;36272;59.400;17.982;2022-11-15T16:36:24;3.92;;;1.10;;
50363;SDS011;36272;59.400;17.982;2022-11-15T16:41:27;3.67;;;1.58;;
50363;SDS011;36272;59.400;17.982;2022-11-15T16:46:33;6.47;;;1.70;;
50363;SDS011;36272;59.400;17.982;2022-11-15T16:51:37;4.07;;;1.52;;
50363;SDS011;36272;59.400;17.982;2022-11-15T16:56:40;4.97;;;1.40;;
50363;SDS011;36272;59.400;17.982;2022-11-15T17:01:43;2.25;;;1.27;;
50363;SDS011;36272;59.400;17.982;2022-11-15T17:06:50;5.53;;;1.70;;
50363;SDS011;36272;59.400;17.982;2022-11-15T17:11:52;3.53;;;1.42;;
50363;SDS011;36272;59.400;17.982;2022-11-15T17:16:54;1.73;;;0.98;;
50363;SDS011;36272;59.400;17.982;2022-11-15T17:21:56;4.97;;;1.50;;
50363;SDS011;36272;59.400;17.982;2022-11-15T17:26:57;4.07;;;1.02;;
50363;SDS011;36272;59.400;17.982;2022-11-15T17:31:59;3.10;;;1.10;;
50363;SDS011;36272;59.400;17.982;2022-11-15T17:37:01;3.22;;;0.70;;
50363;SDS011;36272;59.400;17.982;2022-11-15T17:42:02;2.30;;;0.70;;
50363;SDS011;36272;59.400;17.982;2022-11-15T17:47:04;7.32;;;0.85;;
50363;SDS011;36272;59.400;17.982;2022-11-15T17:52:08;4.43;;;1.00;;
50363;SDS011;36272;59.400;17.982;2022-11-15T17:57:10;5.50;;;1.30;;
50363;SDS011;36272;59.400;17.982;2022-11-15T18:02:12;4.07;;;1.27;;
50363;SDS011;36272;59.400;17.982;2022-11-15T18:07:13;6.00;;;1.25;;
50363;SDS011;36272;59.400;17.982;2022-11-15T18:12:15;3.97;;;1.20;;
50363;SDS011;36272;59.400;17.982;2022-11-15T18:17:17;2.63;;;1.30;;
50363;SDS011;36272;59.400;17.982;2022-11-15T18:22:19;1.83;;;0.93;;
50363;SDS011;36272;59.400;17.982;2022-11-15T18:27:24;1.92;;;0.70;;
50363;SDS011;36272;59.400;17.982;2022-11-15T18:32:30;5.60;;;0.80;;
50363;SDS011;36272;59.400;17.982;2022-11-15T18:37:32;2.38;;;0.80;;
50363;SDS011;36272;59.400;17.982;2022-11-15T18:42:34;2.05;;;0.90;;
50363;SDS011;36272;59.400;17.982;2022-11-15T18:47:36;2.67;;;0.73;;
50363;SDS011;36272;59.400;17.982;2022-11-15T18:52:37;1.88;;;0.75;;
50363;SDS011;36272;59.400;17.982;2022-11-15T18:57:39;3.47;;;1.10;;
50363;SDS011;36272;59.400;17.982;2022-11-15T19:02:42;4.15;;;0.68;;
50363;SDS011;36272;59.400;17.982;2022-11-15T19:07:46;6.60;;;0.70;;
50363;SDS011;36272;59.400;17.982;2022-11-15T19:12:49;1.80;;;0.70;;
50363;SDS011;36272;59.400;17.982;2022-11-15T19:17:51;3.45;;;1.00;;
50363;SDS011;36272;59.400;17.982;2022-11-15T19:22:52;1.85;;;0.80;;
50363;SDS011;36272;59.400;17.982;2022-11-15T19:27:54;4.15;;;1.00;;
50363;SDS011;36272;59.400;17.982;2022-11-15T19:32:55;2.38;;;1.05;;
50363;SDS011;36272;59.400;17.982;2022-11-15T19:38:00;0.93;;;0.70;;
50363;SDS011;36272;59.400;17.982;2022-11-15T19:43:01;1.60;;;0.63;;
50363;SDS011;36272;59.400;17.982;2022-11-15T19:48:03;3.80;;;1.10;;
50363;SDS011;36272;59.400;17.982;2022-11-15T19:53:05;2.95;;;0.68;;
50363;SDS011;36272;59.400;17.982;2022-11-15T19:58:07;1.20;;;0.73;;
50363;SDS011;36272;59.400;17.982;2022-11-15T20:03:08;5.63;;;0.75;;
50363;SDS011;36272;59.400;17.982;2022-11-15T20:08:13;2.15;;;0.98;;
50363;SDS011;36272;59.400;17.982;2022-11-15T20:13:15;2.78;;;1.00;;
50363;SDS011;36272;59.400;17.982;2022-11-15T20:18:17;1.85;;;1.20;;
50363;SDS011;36272;59.400;17.982;2022-11-15T20:23:18;1.75;;;0.90;;
50363;SDS011;36272;59.400;17.982;2022-11-15T20:28:21;2.25;;;1.20;;
50363;SDS011;36272;59.400;17.982;2022-11-15T20:33:25;1.93;;;1.00;;
50363;SDS011;36272;59.400;17.982;2022-11-15T20:38:27;1.85;;;1.10;;
50363;SDS011;36272;59.400;17.982;2022-11-15T20:43:29;3.40;;;1.25;;
50363;SDS011;36272;59.400;17.982;2022-11-15T20:48:30;2.95;;;1.08;;
50363;SDS011;36272;59.400;17.982;2022-11-15T20:53:32;2.25;;;1.13;;
50363;SDS011;36272;59.400;17.982;2022-11-15T20:58:35;1.63;;;0.98;;
50363;SDS011;36272;59.400;17.982;2022-11-15T21:03:44;1.10;;;1.00;;
50363;SDS011;36272;59.400;17.982;2022-11-15T21:08:46;2.25;;;1.20;;
50363;SDS011;36272;59.400;17.982;2022-11-15T21:14:07;3.97;;;1.20;;
50363;SDS011;36272;59.400;17.982;2022-11-15T21:19:09;1.38;;;1.20;;
50363;SDS011;36272;59.400;17.982;2022-11-15T21:24:21;4.20;;;0.93;;
50363;SDS011;36272;59.400;17.982;2022-11-15T21:29:24;3.63;;;1.00;;
50363;SDS011;36272;59.400;17.982;2022-11-15T21:34:26;4.35;;;1.23;;
50363;SDS011;36272;59.400;17.982;2022-11-15T21:39:28;1.10;;;1.00;;
50363;SDS011;36272;59.400;17.982;2022-11-15T21:44:29;1.65;;;1.00;;
50363;SDS011;36272;59.400;17.982;2022-11-15T21:49:31;3.67;;;1.17;;
50363;SDS011;36272;59.400;17.982;2022-11-15T21:54:33;2.40;;;1.40;;
50363;SDS011;36272;59.400;17.982;2022-11-15T21:59:34;3.92;;;1.25;;
50363;SDS011;36272;59.400;17.982;2022-11-15T22:04:56;1.50;;;1.40;;
50363;SDS011;36272;59.400;17.982;2022-11-15T22:09:58;2.03;;;1.70;;
50363;SDS011;36272;59.400;17.982;2022-11-15T22:14:59;1.40;;;1.20;;
50363;SDS011;36272;59.400;17.982;2022-11-15T22:20:01;2.88;;;1.58;;
50363;SDS011;36272;59.400;17.982;2022-11-15T22:25:03;2.33;;;1.63;;
50363;SDS011;36272;59.400;17.982;2022-11-15T22:30:05;1.85;;;1.42;;
50363;SDS011;36272;59.400;17.982;2022-11-15T22:35:07;2.33;;;1.60;;
50363;SDS011;36272;59.400;17.982;2022-11-15T22:40:09;4.85;;;1.63;;
50363;SDS011;36272;59.400;17.982;2022-11-15T22:45:10;2.78;;;1.70;;
50363;SDS011;36272;59.400;17.982;2022-11-15T22:50:12;2.95;;;1.50;;
50363;SDS011;36272;59.400;17.982;2022-11-15T22:55:14;2.17;;;1.60;;
50363;SDS011;36272;59.400;17.982;2022-11-15T23:00:16;2.38;;;1.50;;
50363;SDS011;36272;59.400;17.982;2022-11-15T23:05:18;2.55;;;1.60;;
50363;SDS011;36272;59.400;17.982;2022-11-15T23:10:19;2.88;;;1.55;;
50363;SDS011;36272;59.400;17.982;2022-11-15T23:15:39;5.10;;;1.80;;
50363;SDS011;36272;59.400;17.982;2022-11-15T23:21:06;1.60;;;1.45;;
50363;SDS011;36272;59.400;17.982;2022-11-15T23:26:38;1.92;;;1.38;;
50363;SDS011;36272;59.400;17.982;2022-11-15T23:31:40;2.65;;;1.42;;
50363;SDS011;36272;59.400;17.982;2022-11-15T23:37:00;2.17;;;1.40;;
50363;SDS011;36272;59.400;17.982;2022-11-15T23:42:02;1.63;;;1.42;;
50363;SDS011;36272;59.400;17.982;2022-11-15T23:47:11;2.13;;;1.67;;
50363;SDS011;36272;59.400;17.982;2022-11-15T23:52:13;1.75;;;1.65;;
50363;SDS011;36272;59.400;17.982;2022-11-15T23:57:15;4.43;;;1.70;;
